Time;durP1;ratioP1;P1;durP2;ratioP2;P2;SDS_P1;SDS_P2;PMS_P1;PMS_P2;Temp;Humidity;BMP_temperature;BMP_pressure;BME280_temperature;BME280_humidity;BME280_pressure;Samples;Min_cycle;Max_cycle;Signal;HPM_P1;HPM_P2
2022/08/28 00:00:14;;;;;;;44.78;23.33;;;19.30;99.90;;;18.35;100.00;100979.69;5023529;28;20057;-81
2022/08/28 00:02:41;;;;;;;41.00;22.85;;;19.20;99.90;;;18.29;100.00;100969.47;5025435;28;20037;-80
2022/08/28 00:05:10;;;;;;;46.08;24.02;;;19.20;99.90;;;18.30;100.00;100976.53;5007653;28;20087;-80
2022/08/28 00:07:39;;;;;;;46.65;22.58;;;19.20;99.90;;;18.22;100.00;100980.59;5007371;28;20030;-80
2022/08/28 00:10:08;;;;;;;45.58;22.27;;;19.20;99.90;;;18.26;100.00;100980.38;5022927;28;20116;-80
2022/08/28 00:12:35;;;;;;;44.97;21.20;;;19.20;99.90;;;18.22;100.00;100985.06;5024841;28;20037;-80
2022/08/28 00:15:08;;;;;;;43.25;19.55;;;19.10;99.90;;;18.15;100.00;100983.84;5022968;28;20461;-79
2022/08/28 00:17:35;;;;;;;45.40;21.20;;;19.20;99.90;;;18.19;100.00;100990.66;5004380;28;20441;-80
2022/08/28 00:20:01;;;;;;;42.58;21.33;;;19.20;99.90;;;18.21;100.00;100994.06;5024120;28;20028;-80
2022/08/28 00:22:27;;;;;;;49.35;23.30;;;19.20;99.90;;;18.23;100.00;100992.13;5024545;28;20038;-80
2022/08/28 00:24:53;;;;;;;44.83;22.52;;;19.20;99.90;;;18.23;100.00;100997.47;5023691;28;20458;-80
2022/08/28 00:30:04;;;;;;;50.25;23.02;;;19.20;99.90;;;18.26;100.00;100988.38;5026474;28;20044;-81
2022/08/28 00:32:30;;;;;;;45.95;24.25;;;19.20;99.90;;;18.27;100.00;100990.06;5043575;28;20069;-80
2022/08/28 00:34:56;;;;;;;53.38;24.52;;;19.20;99.90;;;18.25;100.00;100992.88;5013676;28;20038;-81
2022/08/28 00:37:22;;;;;;;51.63;23.35;;;19.20;99.90;;;18.24;100.00;100996.47;5030810;28;20030;-81
2022/08/28 00:39:48;;;;;;;48.58;25.02;;;19.10;99.90;;;18.22;100.00;100988.59;5010386;28;20567;-80
2022/08/28 00:42:14;;;;;;;62.03;24.33;;;19.20;99.90;;;18.20;100.00;100992.34;5029867;28;20130;-81
2022/08/28 00:44:47;;;;;;;51.78;23.20;;;19.10;99.90;;;18.18;100.00;100997.78;5024488;28;20030;-81
2022/08/28 00:47:13;;;;;;;50.50;24.02;;;19.20;99.90;;;18.20;100.00;100997.66;5032486;28;20041;-81
2022/08/28 00:49:49;;;;;;;46.55;23.17;;;19.10;99.90;;;18.24;100.00;101005.31;5030046;28;20022;-80
2022/08/28 00:52:19;;;;;;;41.22;22.45;;;19.20;99.90;;;18.30;100.00;101004.03;5028186;28;20022;-81
2022/08/28 00:54:49;;;;;;;41.92;21.00;;;19.20;99.90;;;18.35;100.00;101011.66;5012202;28;20038;-81
2022/08/28 00:57:24;;;;;;;54.10;24.13;;;19.20;99.90;;;18.38;100.00;101008.75;5028585;28;20491;-81
2022/08/28 00:59:50;;;;;;;43.60;22.10;;;19.20;99.90;;;18.41;100.00;101013.88;5023637;28;20026;-81
2022/08/28 01:02:20;;;;;;;48.60;24.02;;;19.30;99.90;;;18.43;100.00;101019.94;5026005;28;20541;-81
2022/08/28 01:04:48;;;;;;;47.55;23.33;;;19.30;99.90;;;18.44;100.00;101010.97;5010844;28;20044;-81
2022/08/28 01:07:16;;;;;;;48.80;23.40;;;19.30;99.90;;;18.45;100.00;101018.03;5027688;28;20692;-81
2022/08/28 01:09:49;;;;;;;45.70;24.02;;;19.30;99.90;;;18.46;100.00;101011.72;5030141;28;20030;-80
2022/08/28 01:12:27;;;;;;;48.00;23.42;;;19.30;99.90;;;18.44;100.00;101013.63;5030007;28;20037;-82
2022/08/28 01:15:00;;;;;;;42.90;22.65;;;19.30;99.90;;;18.47;100.00;101012.59;5027769;28;20036;-81
2022/08/28 01:17:33;;;;;;;45.45;22.80;;;19.30;99.90;;;18.47;100.00;101015.25;5028514;28;20168;-81
2022/08/28 01:20:10;;;;;;;42.63;23.05;;;19.30;99.90;;;18.45;100.00;101002.88;5025016;28;20073;-81
2022/08/28 01:23:14;;;;;;;;;;;19.30;99.90;;;18.37;100.00;101004.41;5030610;28;20071;-81
2022/08/28 01:25:41;;;;;;;49.47;23.30;;;19.30;99.90;;;18.35;100.00;101001.84;5024211;28;19910;-81
2022/08/28 01:28:13;;;;;;;47.35;22.38;;;19.30;99.90;;;18.33;100.00;101002.94;5031352;28;20029;-80
2022/08/28 01:30:43;;;;;;;48.15;21.95;;;19.20;99.90;;;18.31;100.00;101003.03;5047760;28;20085;-82
2022/08/28 01:33:09;;;;;;;45.00;21.80;;;19.20;99.90;;;18.29;100.00;101001.47;5045131;28;20041;-82
2022/08/28 01:35:43;;;;;;;46.75;21.52;;;19.20;99.90;;;18.29;100.00;101001.47;5031722;28;20049;-81
2022/08/28 01:38:10;;;;;;;46.10;20.48;;;19.20;99.90;;;18.24;100.00;100999.97;5011380;28;20030;-81
2022/08/28 01:40:43;;;;;;;41.83;19.80;;;19.20;99.90;;;18.21;100.00;100997.56;5028608;28;20021;-81
2022/08/28 01:43:18;;;;;;;41.85;20.55;;;19.10;99.90;;;18.19;100.00;100991.50;5042036;28;20026;-82
2022/08/28 01:45:51;;;;;;;48.72;20.45;;;19.20;99.90;;;18.15;100.00;100995.34;5030676;28;20026;-81
2022/08/28 01:48:20;;;;;;;46.63;22.75;;;19.10;99.90;;;18.15;100.00;100995.34;5012804;28;20033;-81
2022/08/28 01:50:46;;;;;;;40.63;20.50;;;19.10;99.90;;;18.09;100.00;100989.63;5025730;28;20041;-81
2022/08/28 01:53:24;;;;;;;44.50;19.42;;;19.10;99.90;;;18.03;100.00;100985.59;5026345;28;20106;-80
2022/08/28 01:55:56;;;;;;;44.65;20.60;;;19.00;99.90;;;18.02;100.00;100989.22;5028207;28;20021;-80
2022/08/28 01:58:24;;;;;;;41.53;18.05;;;19.00;99.90;;;17.95;100.00;100993.31;5027059;28;20034;-80
2022/08/28 02:00:51;;;;;;;43.17;19.48;;;19.00;99.90;;;17.94;100.00;100986.28;5026803;28;20060;-81
2022/08/28 02:03:27;;;;;;;31.73;16.75;;;19.00;99.90;;;17.88;100.00;100984.91;5027118;28;20091;-79
2022/08/28 02:05:53;;;;;;;41.33;18.48;;;18.90;99.90;;;17.92;100.00;100988.19;5011051;28;20093;-81
2022/08/28 02:08:19;;;;;;;41.17;19.35;;;18.90;99.90;;;17.87;100.00;100979.72;5028827;28;20497;-81
2022/08/28 02:10:46;;;;;;;41.30;18.80;;;18.90;99.90;;;17.85;100.00;100971.81;5009970;28;20033;-80
2022/08/28 02:13:21;;;;;;;34.20;17.50;;;18.90;99.90;;;17.80;100.00;100973.94;5009939;28;20503;-81
2022/08/28 02:15:47;;;;;;;42.00;18.70;;;18.80;99.90;;;17.74;100.00;100972.56;5040478;28;20033;-80
2022/08/28 02:18:13;;;;;;;31.58;16.10;;;18.80;99.90;;;17.71;100.00;100972.81;5025667;28;20072;-80
2022/08/28 02:20:49;;;;;;;49.05;21.30;;;18.80;99.90;;;17.71;100.00;100978.13;5029215;28;20049;-80
2022/08/28 02:23:15;;;;;;;55.35;21.35;;;18.80;99.90;;;17.74;100.00;100977.91;5028009;28;20029;-81
2022/08/28 02:25:41;;;;;;;46.45;20.48;;;18.80;99.90;;;17.76;100.00;100983.13;5026071;28;20545;-81
2022/08/28 02:28:16;;;;;;;44.22;21.63;;;18.80;99.90;;;17.75;100.00;100982.28;5042360;28;20034;-81
2022/08/28 02:30:42;;;;;;;40.25;21.02;;;18.80;99.90;;;17.73;100.00;100980.66;5025293;28;20025;-81
2022/08/28 02:33:08;;;;;;;45.63;22.33;;;18.70;99.90;;;17.68;100.00;100981.00;5043141;28;20029;-81
2022/08/28 02:35:33;;;;;;;46.08;21.67;;;18.70;99.90;;;17.67;100.00;100981.97;5027505;28;20041;-81
2022/08/28 02:38:05;;;;;;;47.53;22.85;;;18.70;99.90;;;17.65;100.00;100983.91;5027153;28;20021;-81
2022/08/28 02:40:31;;;;;;;54.63;23.13;;;18.70;99.90;;;17.68;100.00;100972.16;5022569;28;20037;-81
2022/08/28 02:42:57;;;;;;;53.08;23.95;;;18.70;99.90;;;17.70;100.00;100976.41;5007276;28;20030;-81
2022/08/28 02:45:23;;;;;;;59.80;25.77;;;18.70;99.90;;;17.74;100.00;100979.72;5024345;28;20029;-81
2022/08/28 02:47:55;;;;;;;61.53;26.15;;;18.70;99.90;;;17.70;100.00;100980.91;5009959;28;20037;-81
2022/08/28 02:50:22;;;;;;;64.53;25.40;;;18.80;99.90;;;17.72;100.00;100971.81;5022063;28;20039;-80
2022/08/28 02:52:50;;;;;;;52.67;22.42;;;18.70;99.90;;;17.70;100.00;100978.22;5023722;28;20079;-79
2022/08/28 02:55:25;;;;;;;74.85;29.48;;;18.70;99.90;;;17.69;100.00;100977.38;5026886;28;20105;-81
2022/08/28 02:57:53;;;;;;;62.55;26.05;;;18.70;99.90;;;17.70;100.00;100973.75;5026524;28;20030;-81
2022/08/28 03:00:23;;;;;;;61.88;25.73;;;18.70;99.90;;;17.67;100.00;100967.78;5025847;28;20030;-79
2022/08/28 03:02:53;;;;;;;66.05;27.08;;;18.70;99.90;;;17.67;100.00;100974.00;5027277;28;20030;-80
2022/08/28 03:05:22;;;;;;;45.83;21.45;;;18.70;99.90;;;17.63;100.00;100976.00;5024968;28;20089;-80
2022/08/28 03:07:49;;;;;;;47.85;22.13;;;18.70;99.90;;;17.63;100.00;100972.50;5024222;28;20042;-80
2022/08/28 03:10:23;;;;;;;73.25;29.23;;;18.70;99.90;;;17.67;100.00;100974.00;5006974;28;20491;-81
2022/08/28 03:12:49;;;;;;;53.95;26.85;;;18.70;99.90;;;17.68;100.00;100975.66;5024743;28;20037;-81
2022/08/28 03:15:16;;;;;;;62.70;25.90;;;18.70;99.90;;;17.67;100.00;100979.31;5023326;28;20072;-81
2022/08/28 03:17:48;;;;;;;74.97;28.52;;;18.70;99.90;;;17.73;100.00;100986.88;5027707;28;20021;-81
2022/08/28 03:20:15;;;;;;;76.32;31.48;;;18.70;99.90;;;17.72;100.00;100985.16;5025071;28;20030;-81
2022/08/28 03:25:30;;;;;;;68.47;29.05;;;18.70;99.90;;;17.74;100.00;100987.72;5028467;28;20413;-81
2022/08/28 03:27:56;;;;;;;66.30;27.60;;;18.70;99.90;;;17.72;100.00;100982.47;5009709;28;20041;-81
2022/08/28 03:30:22;;;;;;;65.57;29.08;;;18.70;99.90;;;17.74;100.00;100977.91;5023140;28;20034;-81
2022/08/28 03:32:48;;;;;;;68.78;29.08;;;18.70;99.90;;;17.71;100.00;100971.94;5026751;28;20072;-80
2022/08/28 03:35:15;;;;;;;67.43;30.33;;;18.70;99.90;;;17.72;100.00;100982.47;5022324;28;20748;-81
2022/08/28 03:37:41;;;;;;;60.03;28.02;;;18.70;99.90;;;17.70;100.00;100976.41;5022530;28;20092;-81
2022/08/28 03:40:11;;;;;;;82.15;31.25;;;18.70;99.90;;;17.69;100.00;100979.19;5025687;28;20037;-80
2022/08/28 03:42:37;;;;;;;64.07;28.90;;;18.70;99.90;;;17.69;100.00;100976.50;5024800;28;20030;-81
2022/08/28 03:45:07;;;;;;;79.22;30.60;;;18.70;99.90;;;17.70;100.00;100978.22;5023871;28;20033;-81
2022/08/28 03:47:40;;;;;;;64.95;29.25;;;18.70;99.90;;;17.66;100.00;100982.06;5024441;28;20490;-80
2022/08/28 03:50:10;;;;;;;80.85;32.70;;;18.70;99.90;;;17.69;100.00;100982.72;5022570;28;20030;-81
2022/08/28 03:52:38;;;;;;;79.93;31.95;;;18.70;99.90;;;17.67;100.00;100981.09;5024323;28;20029;-81
2022/08/28 03:55:09;;;;;;;70.50;31.33;;;18.70;99.90;;;17.62;100.00;100989.44;5020797;28;20030;-81
2022/08/28 03:57:36;;;;;;;77.20;31.02;;;18.60;99.90;;;17.61;100.00;100985.06;5040515;28;20029;-81
2022/08/28 04:00:08;;;;;;;76.05;31.35;;;18.70;99.90;;;17.60;100.00;100986.91;5024035;28;20033;-81
2022/08/28 04:02:36;;;;;;;82.75;32.55;;;18.60;99.90;;;17.60;100.00;100994.88;5005373;28;20069;-81
2022/08/28 04:05:04;;;;;;;88.82;34.97;;;18.70;99.90;;;17.67;100.00;100989.09;5027099;28;20029;-81
2022/08/28 04:07:30;;;;;;;67.03;31.48;;;18.70;99.90;;;17.69;100.00;100995.16;5026067;28;20029;-81
2022/08/28 04:09:55;;;;;;;79.95;31.88;;;18.70;99.90;;;17.67;100.00;100995.28;5028814;28;20437;-80
2022/08/28 04:12:21;;;;;;;84.85;33.60;;;18.60;99.90;;;17.64;100.00;101000.81;5043606;28;20030;-80
2022/08/28 04:14:55;;;;;;;91.72;36.30;;;18.60;99.90;;;17.70;100.00;101000.38;5024047;28;20083;-81
2022/08/28 04:17:21;;;;;;;90.43;33.58;;;18.70;99.90;;;17.71;100.00;101007.44;5012678;28;20075;-81
2022/08/28 04:19:59;;;;;;;88.68;34.65;;;18.70;99.90;;;17.71;100.00;101011.88;5029665;28;20048;-81
2022/08/28 04:22:25;;;;;;;88.50;35.30;;;18.60;99.90;;;17.69;100.00;101005.81;5025835;28;20041;-81
2022/08/28 04:24:50;;;;;;;82.55;34.45;;;18.80;99.90;;;17.68;100.00;101004.13;5032356;28;20026;-80
2022/08/28 04:27:16;;;;;;;99.18;37.78;;;18.60;99.90;;;17.60;100.00;101009.97;5028782;28;20083;-81
2022/08/28 04:29:47;;;;;;;98.38;38.08;;;18.60;99.90;;;17.60;100.00;101007.31;5009707;28;20037;-80
2022/08/28 04:32:13;;;;;;;91.13;36.63;;;18.60;99.90;;;17.60;100.00;101009.97;5026404;28;20029;-81
2022/08/28 04:34:39;;;;;;;101.03;38.80;;;18.60;99.90;;;17.61;100.00;101009.03;5011343;28;20025;-81
2022/08/28 04:37:05;;;;;;;92.55;36.38;;;18.60;99.90;;;17.64;100.00;101011.47;5023784;28;20046;-81
2022/08/28 04:39:32;;;;;;;93.95;37.80;;;18.60;99.90;;;17.60;100.00;101015.31;5028361;28;20104;-81
2022/08/28 04:42:06;;;;;;;102.82;39.60;;;18.60;99.90;;;17.62;100.00;101016.06;5028093;28;20037;-82
2022/08/28 04:44:32;;;;;;;87.43;37.05;;;18.60;99.90;;;17.61;100.00;101015.22;5009272;28;20034;-82
2022/08/28 04:46:57;;;;;;;103.75;40.53;;;18.60;99.90;;;17.67;100.00;101019.25;5026235;28;20064;-81
2022/08/28 04:49:24;;;;;;;102.15;38.97;;;18.60;99.90;;;17.68;100.00;101014.78;5031141;28;20040;-81
2022/08/28 04:51:50;;;;;;;99.28;37.22;;;18.60;99.90;;;17.67;100.00;101005.06;5028738;28;20055;-81
2022/08/28 04:54:20;;;;;;;120.85;42.83;;;18.60;99.90;;;17.63;100.00;101007.97;5045283;28;20053;-81
2022/08/28 04:56:46;;;;;;;126.78;42.35;;;18.60;99.90;;;17.66;100.00;101006.03;5026227;28;20291;-81
2022/08/28 04:59:12;;;;;;;135.02;44.78;;;18.70;99.90;;;17.70;100.00;101010.19;5024138;28;20032;-81
2022/08/28 05:01:41;;;;;;;124.80;44.38;;;18.60;99.90;;;17.69;100.00;101006.69;5013300;28;20465;-80
2022/08/28 05:04:12;;;;;;;140.25;47.15;;;18.60;99.90;;;17.68;100.00;101010.28;5023193;28;20025;-82
2022/08/28 05:06:44;;;;;;;127.65;44.40;;;18.70;99.90;;;17.72;100.00;101011.78;5013563;28;20432;-81
2022/08/28 05:09:17;;;;;;;143.38;44.60;;;18.70;99.90;;;17.70;100.00;101012.84;5024461;28;20025;-80
2022/08/28 05:11:44;;;;;;;116.05;40.28;;;18.70;99.90;;;17.71;100.00;101022.53;5026664;28;20494;-81
2022/08/28 05:14:11;;;;;;;126.38;42.08;;;18.70;99.90;;;17.75;100.00;101022.22;5026175;28;20031;-81
2022/08/28 05:16:49;;;;;;;109.82;39.58;;;18.70;99.90;;;17.76;100.00;101018.59;5025642;28;20057;-82
2022/08/28 05:19:17;;;;;;;112.78;39.17;;;18.80;99.90;;;17.79;100.00;101015.69;5013849;28;20494;-81
2022/08/28 05:21:47;;;;;;;111.88;39.63;;;18.70;99.90;;;17.82;100.00;101031.50;5012315;28;20085;-81
2022/08/28 05:24:13;;;;;;;138.20;43.92;;;18.80;99.90;;;17.90;100.00;101022.09;5015312;28;20049;-82
2022/08/28 05:26:40;;;;;;;138.55;43.08;;;18.80;99.90;;;17.95;100.00;101026.13;5026832;28;20032;-81
2022/08/28 05:29:08;;;;;;;136.77;43.03;;;18.90;99.90;;;18.01;100.00;101030.13;5031665;28;20025;-82
2022/08/28 05:31:41;;;;;;;139.23;44.15;;;18.90;99.90;;;18.06;100.00;101037.81;5027471;28;20040;-81
2022/08/28 05:34:09;;;;;;;146.68;42.95;;;18.90;99.90;;;18.08;100.00;101038.53;5024146;28;20042;-81
2022/08/28 05:36:37;;;;;;;113.85;37.25;;;18.90;99.90;;;18.07;100.00;101043.03;5029098;28;20030;-81
2022/08/28 05:39:09;;;;;;;113.70;38.33;;;18.90;99.90;;;18.06;100.00;101043.16;5008647;28;20387;-81
2022/08/28 05:41:35;;;;;;;125.32;39.35;;;19.00;99.90;;;18.12;100.00;101053.34;5013948;28;20041;-82
2022/08/28 05:44:08;;;;;;;114.68;39.00;;;19.00;99.90;;;18.13;100.00;101055.06;5009688;28;21341;-80
2022/08/28 05:46:45;;;;;;;109.30;36.70;;;19.00;99.90;;;18.06;100.00;101052.00;5009948;28;20030;-83
2022/08/28 05:49:18;;;;;;;95.32;34.28;;;19.00;99.90;;;18.03;100.00;101050.41;5020368;28;20028;-81
2022/08/28 05:51:45;;;;;;;102.65;34.55;;;18.90;99.90;;;17.98;100.00;101049.88;5012768;28;20179;-81
2022/08/28 05:54:11;;;;;;;85.60;31.73;;;18.90;99.90;;;17.98;100.00;101054.34;5025313;28;20509;-82
2022/08/28 05:56:46;;;;;;;93.43;33.17;;;18.90;99.90;;;17.95;100.00;101047.44;5011386;28;20041;-82
2022/08/28 05:59:14;;;;;;;94.97;32.70;;;18.90;99.90;;;17.95;100.00;101054.59;5009457;28;20030;-82
2022/08/28 06:01:49;;;;;;;90.93;30.88;;;18.90;99.90;;;17.92;100.00;101054.78;5008162;28;20033;-81
2022/08/28 06:04:21;;;;;;;83.95;32.20;;;18.90;99.90;;;17.96;100.00;101054.47;5011822;28;20017;-82
2022/08/28 06:06:50;;;;;;;91.80;31.98;;;18.90;99.90;;;18.02;100.00;101053.19;5026359;28;20049;-81
2022/08/28 06:09:27;;;;;;;84.07;31.20;;;18.90;99.90;;;18.09;100.00;101048.25;5027361;28;20089;-81
2022/08/28 06:12:01;;;;;;;80.53;30.08;;;19.00;99.90;;;18.17;100.00;101057.38;5008302;28;20658;-82
2022/08/28 06:14:28;;;;;;;91.95;31.38;;;19.00;99.90;;;18.20;100.00;101056.28;5025870;28;20053;-81
2022/08/28 06:17:00;;;;;;;86.47;28.90;;;19.10;99.90;;;18.22;100.00;101052.56;5027344;28;20029;-82
2022/08/28 06:19:30;;;;;;;91.80;29.02;;;19.10;99.90;;;18.27;100.00;101060.19;5025495;28;20718;-81
2022/08/28 06:21:59;;;;;;;79.88;28.92;;;19.20;99.90;;;18.35;100.00;101065.81;5026602;28;20053;-81
2022/08/28 06:24:28;;;;;;;72.43;29.75;;;19.30;99.90;;;18.49;100.00;101055.94;5025985;28;20048;-82
2022/08/28 06:26:55;;;;;;;79.20;29.08;;;19.40;99.90;;;18.58;100.00;101064.13;5029105;28;20037;-82
2022/08/28 06:29:23;;;;;;;68.20;25.90;;;19.40;99.90;;;18.69;100.00;101068.66;5009824;28;20064;-81
2022/08/28 06:31:58;;;;;;;76.53;25.48;;;19.50;99.90;;;18.79;100.00;101068.81;5025923;28;20036;-81
2022/08/28 06:34:25;;;;;;;65.93;25.15;;;19.50;99.90;;;18.91;100.00;101070.56;5007768;22;20049;-80
2022/08/28 06:36:51;;;;;;;61.63;24.13;;;19.70;99.90;;;18.95;100.00;101074.72;4970079;28;20519;-79
2022/08/28 06:39:17;;;;;;;59.75;24.20;;;19.70;99.90;;;19.01;100.00;101084.91;4987704;28;20542;-79
2022/08/28 06:41:45;;;;;;;66.18;25.27;;;19.70;99.90;;;18.96;100.00;101071.09;4988907;28;20033;-80
2022/08/28 06:44:18;;;;;;;62.20;26.15;;;19.80;99.90;;;18.97;100.00;101078.09;4975873;28;20388;-79
2022/08/28 06:46:46;;;;;;;60.50;25.85;;;19.80;99.90;;;18.98;100.00;101073.63;4968360;28;20047;-79
2022/08/28 06:49:17;;;;;;;65.07;25.25;;;19.80;99.90;;;19.02;100.00;101089.28;4965177;28;20476;-79
2022/08/28 06:51:43;;;;;;;62.53;24.55;;;19.80;99.90;;;19.13;100.00;101082.25;4966576;28;20057;-80
2022/08/28 06:54:09;;;;;;;57.67;22.92;;;19.90;99.90;;;19.32;100.00;101089.72;4968545;28;20053;-79
2022/08/28 06:56:35;;;;;;;45.05;21.65;;;20.00;99.90;;;19.42;100.00;101088.88;4968734;28;20035;-79
2022/08/28 06:59:04;;;;;;;54.88;22.88;;;20.10;99.90;;;19.73;100.00;101090.97;4967835;28;20032;-79
2022/08/28 07:01:34;;;;;;;40.47;20.08;;;20.30;99.90;;;19.96;100.00;101098.00;4953830;28;20510;-79
2022/08/28 07:04:16;;;;;;;43.53;20.40;;;20.50;99.90;;;19.93;100.00;101100.06;4972212;28;20043;-81
2022/08/28 07:06:44;;;;;;;44.83;20.75;;;20.40;99.90;;;19.58;100.00;101099.19;4973519;28;20027;-80
2022/08/28 07:09:15;;;;;;;41.83;21.00;;;20.30;99.90;;;19.38;100.00;101098.09;4973534;28;20019;-80
2022/08/28 07:11:48;;;;;;;46.72;20.88;;;20.20;99.90;;;19.23;100.00;101104.63;4971765;28;20038;-79
2022/08/28 07:14:13;;;;;;;41.85;20.20;;;20.10;99.90;;;19.06;100.00;101106.75;4967071;28;20038;-80
2022/08/28 07:16:49;;;;;;;44.53;21.02;;;20.00;99.90;;;19.04;100.00;101105.16;4962979;28;20487;-80
2022/08/28 07:19:15;;;;;;;46.13;22.13;;;19.90;99.90;;;18.98;100.00;101103.81;4964710;28;20027;-80
2022/08/28 07:21:51;;;;;;;47.75;22.77;;;19.90;99.90;;;18.96;100.00;101108.44;4965543;28;20085;-79
2022/08/28 07:24:17;;;;;;;;;;;19.90;99.90;;;19.13;100.00;101112.47;4963795;28;20077;-80
2022/08/28 07:26:46;;;;;;;40.75;21.42;;;20.00;99.90;;;19.26;100.00;101109.72;4963251;28;19973;-79
2022/08/28 07:29:21;;;;;;;42.63;20.50;;;20.10;99.90;;;19.60;100.00;101107.09;4963593;28;20038;-80
2022/08/28 07:31:59;;;;;;;44.65;16.77;;;20.30;99.90;;;19.91;100.00;101110.88;4966428;28;20082;-81
2022/08/28 07:34:25;;;;;;;30.48;17.50;;;20.50;99.90;;;19.94;100.00;101104.44;4966630;28;20026;-80
2022/08/28 07:36:51;;;;;;;29.23;18.17;;;20.60;99.90;;;19.96;100.00;101121.22;4966501;28;20086;-79
2022/08/28 07:39:17;;;;;;;33.17;17.92;;;20.70;99.90;;;20.16;100.00;101106.25;4971824;28;20031;-80
2022/08/28 07:41:46;;;;;;;32.28;17.70;;;20.80;99.90;;;20.10;100.00;101114.75;4968236;28;20042;-79
2022/08/28 07:47:10;;;;;;;32.05;15.55;;;20.60;99.90;;;19.66;100.00;101117.31;4969362;28;20045;-80
2022/08/28 07:49:38;;;;;;;34.60;15.32;;;20.50;99.90;;;19.52;100.00;101117.53;4969902;28;20046;-81
2022/08/28 07:52:15;;;;;;;33.60;15.10;;;20.50;99.90;;;19.88;100.00;101122.66;4967473;28;20087;-80
2022/08/28 07:54:40;;;;;;;31.83;14.35;;;20.90;99.90;;;21.25;100.00;101123.94;4968366;28;20031;-79
2022/08/28 07:57:08;;;;;;;37.03;14.65;;;21.40;99.90;;;21.33;100.00;101116.09;4968756;28;20063;-81
2022/08/28 07:59:41;;;;;;;30.10;14.38;;;21.70;99.90;;;21.23;100.00;101116.06;4968304;28;20041;-82
2022/08/28 08:02:09;;;;;;;22.65;11.82;;;21.70;99.90;;;21.05;100.00;101120.28;4972477;28;20444;-80
2022/08/28 08:04:35;;;;;;;27.52;12.25;;;21.70;99.90;;;20.98;100.00;101116.44;4970994;28;20054;-79
2022/08/28 08:07:08;;;;;;;26.13;12.82;;;21.70;99.90;;;21.31;100.00;101120.75;4970146;28;20035;-80
2022/08/28 08:09:41;;;;;;;18.98;9.93;;;21.80;99.90;;;21.39;100.00;101117.44;4952890;28;20085;-80
2022/08/28 08:12:08;;;;;;;13.68;7.80;;;21.80;99.90;;;21.12;100.00;101123.31;4971428;28;20456;-81
2022/08/28 08:14:36;;;;;;;18.30;9.38;;;21.90;99.90;;;21.82;100.00;101127.13;4970692;28;20035;-79
2022/08/28 08:17:03;;;;;;;21.25;9.48;;;22.50;99.90;;;22.34;100.00;101140.44;4969409;28;20118;-79
2022/08/28 08:19:29;;;;;;;13.55;8.18;;;22.60;99.90;;;21.88;100.00;101138.16;4972897;28;20039;-80
2022/08/28 08:21:55;;;;;;;19.50;9.10;;;22.60;99.90;;;21.80;100.00;101131.75;4971737;28;20035;-80
2022/08/28 08:24:27;;;;;;;20.05;8.80;;;22.50;99.90;;;21.71;100.00;101136.09;4986469;28;20037;-79
2022/08/28 08:26:59;;;;;;;16.27;8.45;;;22.50;99.90;;;21.81;100.00;101136.97;4970023;28;20062;-79
2022/08/28 08:29:25;;;;;;;17.05;8.27;;;22.40;99.90;;;21.70;100.00;101140.59;4969904;28;20526;-80
2022/08/28 08:32:03;;;;;;;14.32;7.35;;;22.30;99.90;;;21.49;100.00;101143.31;4969531;28;20046;-79
2022/08/28 08:34:30;;;;;;;15.50;7.55;;;22.40;99.90;;;22.13;100.00;101138.66;4970303;28;20023;-79
2022/08/28 08:36:56;;;;;;;16.73;7.65;;;22.80;99.90;;;22.85;97.86;101148.28;4969791;28;20039;-80
2022/08/28 08:39:22;;;;;;;15.98;6.80;;;23.70;99.90;;;24.26;91.37;101154.72;4967461;28;20040;-79
2022/08/28 08:41:55;;;;;;;17.85;7.95;;;24.60;99.90;;;24.88;88.78;101149.50;4965964;28;20078;-79
2022/08/28 08:44:45;;;;;;;15.18;6.15;;;24.90;99.90;;;24.50;85.04;101146.13;4964364;28;20074;-79
2022/08/28 08:47:26;;;;;;;15.65;6.68;;;24.80;99.90;;;23.89;88.14;101152.94;4951290;28;21132;-79
2022/08/28 08:50:12;;;;;;;15.80;6.00;;;24.20;99.90;;;22.99;89.36;101141.59;4962695;28;20030;-78
2022/08/28 08:52:46;;;;;;;14.80;6.15;;;23.70;99.90;;;22.52;92.80;101147.66;4966941;28;20031;-79
2022/08/28 08:55:31;;;;;;;14.00;6.03;;;23.50;99.90;;;23.19;93.28;101149.69;4969304;28;20038;-78
2022/08/28 08:58:29;;;;;;;12.60;5.38;;;23.40;99.90;;;22.48;91.55;101154.31;4970025;28;20049;-78
2022/08/28 09:01:21;;;;;;;16.63;5.25;;;23.00;99.90;;;21.86;94.12;101155.34;4966429;28;20431;-79
2022/08/28 09:04:10;;;;;;;16.98;5.72;;;22.70;99.90;;;22.05;96.77;101155.44;4966532;28;20078;-79
2022/08/28 09:06:51;;;;;;;14.23;5.30;;;22.90;99.90;;;22.60;98.60;101154.19;4960904;28;20049;-78
2022/08/28 09:09:26;;;;;;;15.70;5.75;;;23.20;99.90;;;23.00;98.01;101156.78;4949139;28;20047;-79
2022/08/28 09:12:07;;;;;;;8.73;4.63;;;23.70;99.90;;;23.47;94.85;101156.00;4964166;28;20073;-78
2022/08/28 09:15:13;;;;;;;12.55;5.20;;;24.00;99.90;;;23.94;94.02;101150.63;4961440;28;20074;-79
2022/08/28 09:18:10;;;;;;;18.67;5.50;;;24.30;99.90;;;24.01;91.00;101153.56;4917459;28;20051;-79
2022/08/28 09:20:37;;;;;;;12.15;5.38;;;24.40;99.90;;;23.69;88.88;101154.78;4967172;28;20449;-79
2022/08/28 09:23:09;;;;;;;8.30;4.13;;;24.00;99.90;;;23.06;86.25;101164.25;4964784;28;20043;-78
2022/08/28 09:25:55;;;;;;;8.95;4.60;;;23.80;99.90;;;22.91;91.56;101152.22;4964784;28;20062;-78
2022/08/28 09:28:33;;;;;;;9.55;4.30;;;23.70;99.90;;;22.82;90.91;101155.75;4964273;28;20096;-78
2022/08/28 09:31:41;;;;;;;13.65;5.00;;;23.60;99.90;;;22.99;91.93;101159.56;4957665;28;20031;-79
2022/08/28 09:34:30;;;;;;;12.85;5.75;;;23.80;99.90;;;23.50;94.13;101164.63;4953770;28;20070;-78
2022/08/28 09:36:59;;;;;;;10.35;4.38;;;23.90;99.90;;;23.46;89.31;101163.22;4954919;28;20043;-78
2022/08/28 09:39:34;;;;;;;14.95;4.68;;;24.00;99.90;;;23.51;88.59;101160.94;4955958;28;20514;-79
2022/08/28 09:45:20;;;;;;;10.30;4.60;;;24.20;99.90;;;23.61;85.91;101155.53;4961440;28;20042;-78
2022/08/28 09:48:18;;;;;;;9.70;3.97;;;24.20;99.90;;;23.52;86.23;101157.25;4963832;28;20034;-78
2022/08/28 09:51:28;;;;;;;16.77;4.72;;;24.00;99.90;;;23.10;88.29;101162.13;4962804;28;20031;-77
2022/08/28 09:54:18;;;;;;;15.35;4.70;;;23.90;99.90;;;23.30;89.29;101161.13;4934002;28;20034;-79
2022/08/28 09:56:47;;;;;;;14.20;4.38;;;23.70;99.90;;;22.88;87.76;101172.13;4964271;28;20043;-78
2022/08/28 09:59:21;;;;;;;12.32;4.22;;;23.50;99.90;;;22.61;89.49;101167.44;4949517;28;20039;-78
2022/08/28 10:02:26;;;;;;;11.93;5.20;;;23.50;99.90;;;22.79;89.81;101167.63;4965398;28;20070;-78
2022/08/28 10:05:33;;;;;;;14.63;4.75;;;23.50;99.90;;;22.92;89.37;101170.03;4969405;28;20399;-78
2022/08/28 10:08:44;;;;;;;11.13;4.30;;;23.70;99.90;;;23.10;85.83;101165.66;4958512;28;20047;-78
2022/08/28 10:11:45;;;;;;;13.27;4.63;;;23.80;99.90;;;23.38;87.76;101173.00;4949960;28;20094;-78
2022/08/28 10:15:06;;;;;;;12.07;4.70;;;24.00;99.90;;;23.64;87.85;101175.91;4964995;28;20038;-78
2022/08/28 10:18:05;;;;;;;18.85;5.00;;;24.00;99.90;;;23.20;83.65;101176.41;4953355;28;20119;-78
2022/08/28 10:20:47;;;;;;;17.58;4.30;;;23.90;99.90;;;23.09;86.79;101177.41;4964150;28;20147;-78
2022/08/28 10:23:42;;;;;;;13.23;4.80;;;23.80;99.90;;;23.09;84.57;101179.25;4966915;28;20106;-78
2022/08/28 10:27:04;;;;;;;13.38;4.70;;;23.80;99.90;;;23.03;85.27;101166.38;4969287;28;20082;-78